Time;durP1;ratioP1;P1;durP2;ratioP2;P2;SDS_P1;SDS_P2;PMS_P1;PMS_P2;Temp;Humidity;BMP_temperature;BMP_pressure;BME280_temperature;BME280_humidity;BME280_pressure;Samples;Min_cycle;Max_cycle;Signal;HPM_P1;HPM_P2
2023/04/04 00:01:32;;;;;;;;;;;4.40;99.90;;;;;;5076541;28;19915;-56
2023/04/04 00:03:58;;;;;;;;;;;4.40;99.90;;;;;;5076544;28;19913;-56
2023/04/04 00:06:24;;;;;;;;;;;4.30;99.90;;;;;;5076359;28;19912;-56
2023/04/04 00:08:50;;;;;;;;;;;4.30;99.90;;;;;;5076329;28;19909;-56
2023/04/04 00:11:15;;;;;;;;;;;4.20;99.90;;;;;;5076362;28;19916;-56
2023/04/04 00:13:41;;;;;;;;;;;4.30;99.90;;;;;;5076328;28;19912;-56
2023/04/04 00:16:07;;;;;;;;;;;4.30;99.90;;;;;;5076440;28;19924;-56
2023/04/04 00:18:33;;;;;;;;;;;4.20;99.90;;;;;;5076270;28;19916;-56
2023/04/04 00:20:58;;;;;;;;;;;4.20;99.90;;;;;;5076470;28;20277;-56
2023/04/04 00:23:24;;;;;;;;;;;3.90;99.90;;;;;;5074945;28;19916;-56
2023/04/04 00:25:53;;;;;;;;;;;3.90;99.90;;;;;;5076197;28;19908;-56
2023/04/04 00:28:19;;;;;;;;;;;4.10;99.90;;;;;;5076495;28;19923;-56
2023/04/04 00:30:45;;;;;;;;;;;4.20;99.90;;;;;;5075998;28;19957;-56
2023/04/04 00:33:14;;;;;;;;;;;4.20;99.90;;;;;;5075954;28;19909;-56
2023/04/04 00:35:40;;;;;;;;;;;4.30;99.90;;;;;;5076116;28;19967;-56
2023/04/04 00:38:06;;;;;;;;;;;4.40;99.90;;;;;;5075743;28;20298;-56
2023/04/04 00:40:39;;;;;;;;;;;4.40;99.90;;;;;;5075975;28;19956;-56
2023/04/04 00:43:05;;;;;;;;;;;4.40;99.90;;;;;;5076179;28;19920;-56
2023/04/04 00:45:32;;;;;;;;;;;4.30;99.90;;;;;;5075675;28;19912;-56
2023/04/04 00:47:58;;;;;;;;;;;4.20;99.90;;;;;;5057996;28;19912;-56
2023/04/04 00:50:23;;;;;;;;;;;4.00;99.90;;;;;;5057666;28;20262;-56
2023/04/04 00:52:49;;;;;;;;;;;4.10;99.90;;;;;;5075413;28;19919;-57
2023/04/04 00:55:15;;;;;;;;;;;4.10;99.90;;;;;;5075805;28;19916;-56
2023/04/04 00:57:41;;;;;;;;;;;4.10;99.90;;;;;;5057852;28;19974;-56
2023/04/04 01:00:07;;;;;;;;;;;4.00;99.90;;;;;;5075562;28;19908;-56
2023/04/04 01:02:34;;;;;;;;;;;4.00;99.90;;;;;;5075749;28;19913;-56
2023/04/04 01:05:01;;;;;;;;;;;4.00;99.90;;;;;;5075273;28;20146;-56
2023/04/04 01:07:27;;;;;;;;;;;3.70;99.90;;;;;;5057461;28;20328;-56
2023/04/04 01:09:55;;;;;;;;;;;3.80;99.90;;;;;;5075253;28;19916;-56
2023/04/04 01:12:21;;;;;;;;;;;3.70;99.90;;;;;;5057300;28;19912;-56
2023/04/04 01:14:46;;;;;;;;;;;3.70;99.90;;;;;;5075301;28;20289;-56
2023/04/04 01:17:13;;;;;;;;;;;3.70;99.90;;;;;;5057326;28;19959;-56
2023/04/04 01:19:45;;;;;;;;;;;3.50;99.90;;;;;;5057115;28;19966;-56
2023/04/04 01:22:16;;;;;;;;;;;3.50;99.90;;;;;;5057252;28;20362;-56
2023/04/04 01:24:44;;;;;;;;;;;3.50;99.90;;;;;;5057266;28;19917;-56
2023/04/04 01:27:10;;;;;;;;;;;3.60;99.90;;;;;;5057031;28;19919;-56
2023/04/04 01:29:42;;;;;;;;;;;3.60;99.90;;;;;;5057194;28;20256;-56
2023/04/04 01:32:17;;;;;;;;;;;3.50;99.90;;;;;;5057103;28;19923;-56
2023/04/04 01:34:53;;;;;;;;;;;3.20;99.90;;;;;;5056603;28;19916;-56
2023/04/04 01:37:25;;;;;;;;;;;3.30;99.90;;;;;;5056962;28;19962;-56
2023/04/04 01:40:15;;;;;;;;;;;3.40;99.90;;;;;;5057117;28;19924;-56
2023/04/04 01:42:42;;;;;;;;;;;3.40;99.90;;;;;;5046291;28;19912;-56
2023/04/04 01:45:08;;;;;;;;;;;3.40;99.90;;;;;;5056911;28;19943;-56
2023/04/04 01:47:39;;;;;;;;;;;3.40;99.90;;;;;;5056858;28;19948;-56
2023/04/04 01:50:09;;;;;;;;;;;3.40;99.90;;;;;;5056791;28;19919;-56
2023/04/04 01:52:36;;;;;;;;;;;3.40;99.90;;;;;;5075206;28;19919;-56
2023/04/04 01:55:02;;;;;;;;;;;3.40;99.90;;;;;;5056431;28;20007;-56
2023/04/04 01:57:29;;;;;;;;;;;3.20;99.90;;;;;;5074830;28;19916;-56
2023/04/04 01:59:55;;;;;;;;;;;3.00;99.90;;;;;;5057163;28;20370;-56
2023/04/04 02:02:21;;;;;;;;;;;2.80;99.90;;;;;;5056658;28;19916;-56
2023/04/04 02:04:48;;;;;;;;;;;2.90;99.90;;;;;;5074666;28;19924;-56
2023/04/04 02:07:14;;;;;;;;;;;2.90;99.90;;;;;;5074904;28;19955;-56
2023/04/04 02:09:40;;;;;;;;;;;3.00;99.90;;;;;;5074515;28;19917;-56
2023/04/04 02:12:07;;;;;;;;;;;3.00;99.90;;;;;;5056687;28;19912;-56
2023/04/04 02:14:33;;;;;;;;;;;2.90;99.90;;;;;;5056900;28;19908;-56
2023/04/04 02:16:59;;;;;;;;;;;3.10;99.90;;;;;;5056571;28;19912;-56
2023/04/04 02:19:26;;;;;;;;;;;3.00;99.90;;;;;;5056512;28;19995;-56
2023/04/04 02:21:51;;;;;;;;;;;2.90;99.90;;;;;;5074769;28;20384;-56
2023/04/04 02:24:17;;;;;;;;;;;3.00;99.90;;;;;;5056536;28;20007;-56
2023/04/04 02:26:43;;;;;;;;;;;3.00;99.90;;;;;;5074420;28;19916;-56
2023/04/04 02:29:09;;;;;;;;;;;3.10;99.90;;;;;;5056681;28;20019;-56
2023/04/04 02:31:34;;;;;;;;;;;3.10;99.90;;;;;;5074496;28;19908;-56
2023/04/04 02:34:01;;;;;;;;;;;3.10;99.90;;;;;;5056660;28;19999;-56
2023/04/04 02:36:27;;;;;;;;;;;3.00;99.90;;;;;;5074435;28;19951;-56
2023/04/04 02:38:55;;;;;;;;;;;2.90;99.90;;;;;;5056278;28;19970;-56
2023/04/04 02:41:23;;;;;;;;;;;2.90;99.90;;;;;;5056481;28;19957;-56
2023/04/04 02:43:50;;;;;;;;;;;2.80;99.90;;;;;;5074530;28;19984;-56
2023/04/04 02:46:17;;;;;;;;;;;2.80;99.90;;;;;;5056652;28;19912;-56
2023/04/04 02:48:44;;;;;;;;;;;2.80;99.90;;;;;;5060177;28;19912;-56
2023/04/04 02:51:09;;;;;;;;;;;2.70;99.90;;;;;;5060100;28;19919;-56
2023/04/04 02:53:35;;;;;;;;;;;2.70;99.90;;;;;;5077728;28;19926;-56
2023/04/04 02:56:13;;;;;;;;;;;2.70;99.90;;;;;;5060179;28;19916;-56
2023/04/04 02:58:39;;;;;;;;;;;2.70;99.90;;;;;;5077663;28;20012;-56
2023/04/04 03:01:05;;;;;;;;;;;2.50;99.90;;;;;;5077733;28;19956;-56
2023/04/04 03:03:35;;;;;;;;;;;2.40;99.90;;;;;;5059805;28;19912;-56
2023/04/04 03:06:01;;;;;;;;;;;2.50;99.90;;;;;;5077405;28;19916;-56
2023/04/04 03:08:27;;;;;;;;;;;2.50;99.90;;;;;;5059454;28;19920;-56
2023/04/04 03:10:56;;;;;;;;;;;2.50;99.90;;;;;;5059799;28;19916;-56
2023/04/04 03:13:22;;;;;;;;;;;2.50;99.90;;;;;;5059691;28;19916;-56
2023/04/04 03:15:48;;;;;;;;;;;2.50;99.90;;;;;;5077585;28;19917;-56
2023/04/04 03:18:15;;;;;;;;;;;2.30;99.90;;;;;;5059628;28;20285;-56
2023/04/04 03:20:41;;;;;;;;;;;2.30;99.90;;;;;;5059419;28;19919;-56
2023/04/04 03:23:08;;;;;;;;;;;2.40;99.90;;;;;;5059456;28;20386;-56
2023/04/04 03:25:33;;;;;;;;;;;2.30;99.90;;;;;;5059671;28;20059;-56
2023/04/04 03:28:07;;;;;;;;;;;2.30;99.90;;;;;;5059305;28;19918;-56
2023/04/04 03:30:33;;;;;;;;;;;2.30;99.90;;;;;;5059318;28;19917;-56
2023/04/04 03:33:02;;;;;;;;;;;2.20;99.90;;;;;;5077443;28;20007;-56
2023/04/04 03:35:28;;;;;;;;;;;2.20;99.90;;;;;;5077420;28;19924;-56
2023/04/04 03:37:55;;;;;;;;;;;2.20;99.90;;;;;;5077244;28;20370;-56
2023/04/04 03:40:20;;;;;;;;;;;2.20;99.90;;;;;;5059123;28;19995;-56
2023/04/04 03:42:46;;;;;;;;;;;2.20;99.90;;;;;;5077222;28;19913;-56
2023/04/04 03:45:17;;;;;;;;;;;2.10;99.90;;;;;;5059009;28;20301;-56
2023/04/04 03:47:43;;;;;;;;;;;2.10;99.90;;;;;;5077184;28;19999;-56
2023/04/04 03:50:09;;;;;;;;;;;2.10;99.90;;;;;;5058941;28;19912;-56
2023/04/04 03:52:39;;;;;;;;;;;1.90;99.90;;;;;;5058881;28;19959;-56
2023/04/04 03:55:06;;;;;;;;;;;1.90;99.90;;;;;;5076788;28;19921;-56
2023/04/04 03:57:32;;;;;;;;;;;2.00;99.90;;;;;;5076355;28;19942;-56
2023/04/04 03:59:57;;;;;;;;;;;2.00;99.90;;;;;;5058685;28;19916;-56
2023/04/04 04:02:23;;;;;;;;;;;1.90;99.90;;;;;;5076778;28;19923;-56
2023/04/04 04:04:50;;;;;;;;;;;1.90;99.90;;;;;;5076467;28;19951;-56
2023/04/04 04:07:15;;;;;;;;;;;1.90;99.90;;;;;;5076475;28;19913;-56
2023/04/04 04:09:41;;;;;;;;;;;1.90;99.90;;;;;;5076425;28;19912;-56
2023/04/04 04:12:07;;;;;;;;;;;1.90;99.90;;;;;;5058591;28;19913;-56
2023/04/04 04:14:33;;;;;;;;;;;1.90;99.90;;;;;;5076565;28;19913;-55
2023/04/04 04:17:01;;;;;;;;;;;1.90;99.90;;;;;;5058458;28;19916;-56
2023/04/04 04:19:26;;;;;;;;;;;1.80;99.90;;;;;;5058163;28;19981;-56
2023/04/04 04:21:52;;;;;;;;;;;1.70;99.90;;;;;;5058372;28;20043;-56
2023/04/04 04:24:18;;;;;;;;;;;1.80;99.90;;;;;;5058142;28;20372;-56
2023/04/04 04:26:44;;;;;;;;;;;1.80;99.90;;;;;;5058031;28;20258;-56
2023/04/04 04:29:12;;;;;;;;;;;1.80;99.90;;;;;;5058065;28;20272;-56
2023/04/04 04:31:38;;;;;;;;;;;1.80;99.90;;;;;;5075993;28;19921;-56
2023/04/04 04:34:07;;;;;;;;;;;1.70;99.90;;;;;;5058170;28;19913;-56
2023/04/04 04:36:35;;;;;;;;;;;1.70;99.90;;;;;;5058174;28;19919;-56
2023/04/04 04:39:27;;;;;;;;;;;1.80;99.90;;;;;;5044743;28;19916;-56
2023/04/04 04:42:12;;;;;;;;;;;1.80;99.90;;;;;;5057822;28;20019;-56
2023/04/04 04:44:46;;;;;;;;;;;1.70;99.90;;;;;;5058035;28;19927;-56
2023/04/04 04:47:12;;;;;;;;;;;1.60;99.90;;;;;;5057649;28;20369;-56
2023/04/04 04:49:38;;;;;;;;;;;1.70;99.90;;;;;;5075714;28;20148;-56
2023/04/04 04:52:07;;;;;;;;;;;1.70;99.90;;;;;;5057874;28;20368;-56
2023/04/04 04:54:34;;;;;;;;;;;1.70;99.90;;;;;;5057558;28;19924;-56
2023/04/04 04:57:00;;;;;;;;;;;1.70;99.90;;;;;;5057712;28;19957;-56
2023/04/04 04:59:28;;;;;;;;;;;1.80;99.90;;;;;;5057659;28;19912;-56
2023/04/04 05:01:54;;;;;;;;;;;1.80;99.90;;;;;;5075263;28;19913;-56
2023/04/04 05:04:21;;;;;;;;;;;1.80;99.90;;;;;;5057613;28;19920;-56
2023/04/04 05:07:01;;;;;;;;;;;1.80;99.90;;;;;;5037447;28;19909;-56
2023/04/04 05:09:27;;;;;;;;;;;1.80;99.90;;;;;;5036707;28;19923;-56
2023/04/04 05:11:53;;;;;;;;;;;1.80;99.90;;;;;;5037566;28;19976;-56
2023/04/04 05:14:24;;;;;;;;;;;1.80;99.90;;;;;;5037482;28;20209;-56
2023/04/04 05:16:54;;;;;;;;;;;1.70;99.90;;;;;;5037330;28;19932;-56
2023/04/04 05:19:28;;;;;;;;;;;1.70;99.90;;;;;;5055181;28;19947;-56
2023/04/04 05:21:56;;;;;;;;;;;1.70;99.90;;;;;;5053925;28;19917;-56
2023/04/04 05:24:33;;;;;;;;;;;1.80;99.90;;;;;;5037119;28;19927;-56
2023/04/04 05:27:00;;;;;;;;;;;1.80;99.90;;;;;;5036946;28;19952;-56
2023/04/04 05:29:32;;;;;;;;;;;1.70;99.90;;;;;;5053527;28;19913;-56
2023/04/04 05:32:00;;;;;;;;;;;1.80;99.90;;;;;;5036964;28;19912;-56
2023/04/04 05:34:27;;;;;;;;;;;1.80;99.90;;;;;;5054852;28;19913;-56
2023/04/04 05:36:53;;;;;;;;;;;1.80;99.90;;;;;;5051685;28;20691;-56
2023/04/04 05:39:19;;;;;;;;;;;1.90;99.90;;;;;;5071082;28;19974;-56
2023/04/04 05:42:06;;;;;;;;;;;1.80;99.90;;;;;;5075107;28;19916;-56
2023/04/04 05:44:36;;;;;;;;;;;1.80;99.90;;;;;;5056954;28;20011;-56
2023/04/04 05:47:03;;;;;;;;;;;1.80;99.90;;;;;;5056863;28;20377;-56
2023/04/04 05:49:30;;;;;;;;;;;1.80;99.90;;;;;;5074762;28;20437;-56
2023/04/04 05:52:00;;;;;;;;;;;1.80;99.90;;;;;;5074529;28;19920;-56
2023/04/04 05:54:27;;;;;;;;;;;1.90;99.90;;;;;;5056606;28;19920;-56
2023/04/04 05:56:56;;;;;;;;;;;1.90;99.90;;;;;;5056561;28;19918;-56
2023/04/04 05:59:50;;;;;;;;;;;1.90;99.90;;;;;;5056250;28;19940;-56
2023/04/04 06:02:20;;;;;;;;;;;1.90;99.90;;;;;;5056726;28;19913;-56
2023/04/04 06:04:57;;;;;;;;;;;2.00;99.90;;;;;;5055891;28;19966;-56
2023/04/04 06:07:38;;;;;;;;;;;1.80;99.90;;;;;;5056072;28;20401;-56
2023/04/04 06:10:07;;;;;;;;;;;1.90;99.90;;;;;;5088074;28;19912;-56
2023/04/04 06:12:35;;;;;;;;;;;1.90;99.90;;;;;;5056293;28;19912;-56
2023/04/04 06:15:04;;;;;;;;;;;2.00;99.90;;;;;;5090150;28;19939;-56
2023/04/04 06:17:30;;;;;;;;;;;2.00;99.90;;;;;;5089198;28;19927;-56
2023/04/04 06:19:56;;;;;;;;;;;2.10;99.90;;;;;;5055973;28;19912;-56
2023/04/04 06:22:22;;;;;;;;;;;2.00;99.90;;;;;;5060367;28;19980;-56
2023/04/04 06:24:50;;;;;;;;;;;2.00;99.90;;;;;;5060269;28;19913;-56
2023/04/04 06:27:17;;;;;;;;;;;2.10;99.90;;;;;;5059436;28;20007;-56
2023/04/04 06:29:44;;;;;;;;;;;2.10;99.90;;;;;;5060210;28;19912;-56
2023/04/04 06:32:12;;;;;;;;;;;2.10;99.90;;;;;;5059699;28;19912;-56
2023/04/04 06:34:41;;;;;;;;;;;2.10;99.90;;;;;;5059840;28;19958;-56
2023/04/04 06:37:08;;;;;;;;;;;2.20;99.90;;;;;;5060171;28;19968;-56
2023/04/04 06:39:41;;;;;;;;;;;2.30;99.90;;;;;;5060108;28;19923;-56
2023/04/04 06:42:13;;;;;;;;;;;2.30;99.90;;;;;;5060013;28;20339;-56
2023/04/04 06:44:45;;;;;;;;;;;2.40;99.90;;;;;;5059884;28;19912;-56
2023/04/04 06:47:11;;;;;;;;;;;2.40;99.90;;;;;;5059796;28;20008;-56
2023/04/04 06:49:37;;;;;;;;;;;2.50;99.90;;;;;;5060016;28;19913;-56
2023/04/04 06:52:04;;;;;;;;;;;2.50;99.90;;;;;;5059857;28;20425;-56
2023/04/04 06:54:30;;;;;;;;;;;2.40;99.90;;;;;;5059551;28;19927;-56
2023/04/04 06:56:56;;;;;;;;;;;2.50;99.90;;;;;;5077757;28;19912;-56
2023/04/04 06:59:22;;;;;;;;;;;2.60;99.90;;;;;;5059607;28;19920;-56
2023/04/04 07:01:47;;;;;;;;;;;2.50;99.90;;;;;;5059522;28;20243;-57
2023/04/04 07:04:13;;;;;;;;;;;2.60;99.90;;;;;;5078418;28;19947;-56
2023/04/04 07:06:42;;;;;;;;;;;2.70;99.90;;;;;;5078220;28;19916;-57
2023/04/04 07:09:11;;;;;;;;;;;2.80;99.90;;;;;;5078127;28;19913;-56
2023/04/04 07:11:37;;;;;;;;;;;2.90;99.90;;;;;;5078084;28;19935;-56
2023/04/04 07:14:03;;;;;;;;;;;2.80;99.90;;;;;;5078252;28;19916;-56
2023/04/04 07:16:30;;;;;;;;;;;2.90;99.90;;;;;;5078020;28;19927;-57
2023/04/04 07:18:56;;;;;;;;;;;2.90;99.90;;;;;;5076906;28;19970;-56
2023/04/04 07:21:22;;;;;;;;;;;3.10;99.90;;;;;;5076744;28;19916;-57
2023/04/04 07:23:49;;;;;;;;;;;3.10;99.90;;;;;;5077168;28;20302;-56
2023/04/04 07:26:15;;;;;;;;;;;3.20;99.90;;;;;;5077192;28;19920;-56
2023/04/04 07:28:41;;;;;;;;;;;3.00;99.90;;;;;;5077239;28;19978;-56
2023/04/04 07:31:07;;;;;;;;;;;3.10;99.90;;;;;;5077241;28;19912;-56
2023/04/04 07:33:33;;;;;;;;;;;3.20;99.90;;;;;;5076114;28;19970;-56
2023/04/04 07:36:02;;;;;;;;;;;3.20;99.90;;;;;;5076718;28;19917;-56
2023/04/04 07:38:28;;;;;;;;;;;3.10;99.90;;;;;;5076580;28;19920;-56
2023/04/04 07:40:54;;;;;;;;;;;3.30;99.90;;;;;;5076899;28;19982;-56
2023/04/04 07:43:20;;;;;;;;;;;3.20;99.90;;;;;;5076030;28;19908;-56
2023/04/04 07:45:46;;;;;;;;;;;3.20;99.90;;;;;;5076933;28;19912;-57
2023/04/04 07:48:12;;;;;;;;;;;3.20;99.90;;;;;;5076788;28;19919;-56
2023/04/04 07:50:37;;;;;;;;;;;3.30;99.90;;;;;;5076965;28;19966;-56
2023/04/04 07:53:03;;;;;;;;;;;3.20;99.90;;;;;;5076647;28;19913;-56
2023/04/04 07:55:29;;;;;;;;;;;3.40;99.90;;;;;;5076548;28;19916;-56
2023/04/04 07:57:55;;;;;;;;;;;3.50;99.90;;;;;;5057903;28;20366;-56
2023/04/04 08:00:21;;;;;;;;;;;3.60;99.90;;;;;;5076406;28;19957;-56
2023/04/04 08:02:51;;;;;;;;;;;3.60;99.90;;;;;;5076102;28;19912;-56
2023/04/04 08:05:17;;;;;;;;;;;3.70;99.90;;;;;;5066021;28;19913;-56
2023/04/04 08:07:43;;;;;;;;;;;3.70;99.90;;;;;;5076558;28;19923;-56
2023/04/04 08:10:09;;;;;;;;;;;3.60;99.90;;;;;;5076365;28;19921;-57
2023/04/04 08:12:35;;;;;;;;;;;3.70;99.90;;;;;;5076139;28;19985;-56
2023/04/04 08:15:01;;;;;;;;;;;3.70;99.90;;;;;;5076160;28;19944;-56
2023/04/04 08:17:27;;;;;;;;;;;3.80;99.90;;;;;;5076023;28;19969;-57
2023/04/04 08:19:52;;;;;;;;;;;3.60;99.90;;;;;;5076217;28;19920;-57
2023/04/04 08:22:18;;;;;;;;;;;3.70;99.90;;;;;;5076124;28;20148;-57
2023/04/04 08:24:45;;;;;;;;;;;3.60;99.90;;;;;;5076183;28;19916;-57
2023/04/04 08:27:10;;;;;;;;;;;3.70;99.90;;;;;;5076816;28;20535;-57
2023/04/04 08:29:36;;;;;;;;;;;3.80;99.90;;;;;;5076881;28;19909;-57
2023/04/04 08:32:03;;;;;;;;;;;3.90;99.90;;;;;;5077008;28;19931;-57
2023/04/04 08:34:28;;;;;;;;;;;3.80;99.90;;;;;;5075902;28;20536;-57
2023/04/04 08:36:54;;;;;;;;;;;4.00;99.90;;;;;;5075693;28;19999;-57
2023/04/04 08:39:20;;;;;;;;;;;4.00;99.90;;;;;;5075882;28;19912;-56
2023/04/04 08:41:46;;;;;;;;;;;3.90;99.90;;;;;;5075694;28;19951;-57
2023/04/04 08:44:16;;;;;;;;;;;4.00;99.90;;;;;;5075148;28;20277;-57
2023/04/04 08:46:42;;;;;;;;;;;4.20;99.90;;;;;;5075976;28;20251;-57
2023/04/04 08:49:09;;;;;;;;;;;4.00;99.90;;;;;;5075232;28;20023;-57
2023/04/04 08:51:36;;;;;;;;;;;4.00;99.90;;;;;;5074188;28;19912;-57
2023/04/04 08:54:02;;;;;;;;;;;4.10;99.90;;;;;;5075134;28;20324;-57
2023/04/04 08:56:28;;;;;;;;;;;4.30;99.90;;;;;;5075321;28;19912;-57
2023/04/04 08:58:57;;;;;;;;;;;4.30;99.90;;;;;;5075078;28;20416;-57
2023/04/04 09:01:23;;;;;;;;;;;4.30;99.90;;;;;;5074970;28;19923;-57
2023/04/04 09:03:50;;;;;;;;;;;4.30;99.90;;;;;;5074909;28;19917;-57
2023/04/04 09:06:18;;;;;;;;;;;4.40;99.90;;;;;;5074640;28;19912;-57
2023/04/04 09:08:44;;;;;;;;;;;4.50;99.90;;;;;;5075380;28;19916;-56
2023/04/04 09:11:13;;;;;;;;;;;4.60;99.90;;;;;;5074723;28;19966;-56
2023/04/04 09:13:40;;;;;;;;;;;4.60;99.90;;;;;;5074379;28;19917;-56
2023/04/04 09:16:07;;;;;;;;;;;4.60;99.90;;;;;;5074541;28;19909;-56
2023/04/04 09:18:33;;;;;;;;;;;4.60;99.90;;;;;;5074481;28;19917;-56
2023/04/04 09:21:07;;;;;;;;;;;4.60;99.90;;;;;;5074904;28;19924;-57
2023/04/04 09:23:33;;;;;;;;;;;4.50;99.90;;;;;;5074772;28;20265;-56
2023/04/04 09:25:58;;;;;;;;;;;4.70;99.90;;;;;;5074539;28;19916;-57
2023/04/04 09:28:24;;;;;;;;;;;4.60;99.90;;;;;;5075037;28;20133;-57
2023/04/04 09:30:51;;;;;;;;;;;4.30;99.90;;;;;;5074614;28;20009;-57
2023/04/04 09:33:17;;;;;;;;;;;4.00;99.90;;;;;;5074822;28;19926;-56
2023/04/04 09:35:44;;;;;;;;;;;4.40;99.90;;;;;;5074957;28;20450;-57
2023/04/04 09:38:10;;;;;;;;;;;4.70;99.90;;;;;;5074683;28;19916;-57
2023/04/04 09:40:36;;;;;;;;;;;4.80;99.90;;;;;;5074637;28;19919;-57
2023/04/04 09:43:05;;;;;;;;;;;4.90;99.90;;;;;;5074644;28;19912;-57
2023/04/04 09:45:33;;;;;;;;;;;4.90;99.90;;;;;;5074525;28;20015;-57
2023/04/04 09:47:59;;;;;;;;;;;4.80;99.90;;;;;;5074046;28;20290;-57
2023/04/04 09:50:27;;;;;;;;;;;4.70;99.90;;;;;;5074069;28;19920;-56
2023/04/04 09:52:55;;;;;;;;;;;4.60;99.90;;;;;;5075057;28;19970;-57
2023/04/04 09:55:29;;;;;;;;;;;4.60;99.90;;;;;;5075052;28;19917;-57
2023/04/04 09:57:56;;;;;;;;;;;4.60;99.90;;;;;;5075421;28;19917;-57
2023/04/04 10:00:22;;;;;;;;;;;4.70;99.90;;;;;;5075390;28;19912;-56
2023/04/04 10:02:48;;;;;;;;;;;4.70;99.90;;;;;;5075285;28;19942;-56
2023/04/04 10:05:15;;;;;;;;;;;4.60;99.90;;;;;;5075304;28;19916;-57
2023/04/04 10:07:43;;;;;;;;;;;4.50;99.90;;;;;;5074723;28;20019;-56
2023/04/04 10:10:09;;;;;;;;;;;4.40;99.90;;;;;;5075086;28;19912;-57
2023/04/04 10:12:38;;;;;;;;;;;4.50;99.90;;;;;;5075485;28;20507;-57
2023/04/04 10:15:04;;;;;;;;;;;4.60;99.90;;;;;;5072943;28;20410;-57
2023/04/04 10:17:39;;;;;;;;;;;4.70;99.90;;;;;;5074560;28;19917;-57
2023/04/04 10:20:09;;;;;;;;;;;4.60;99.90;;;;;;5075090;28;20007;-57
2023/04/04 10:22:36;;;;;;;;;;;4.40;99.90;;;;;;5067986;28;19927;-57
2023/04/04 10:25:04;;;;;;;;;;;4.30;99.90;;;;;;5074867;28;19908;-57
2023/04/04 10:27:31;;;;;;;;;;;4.20;99.90;;;;;;5074811;28;19913;-57
2023/04/04 10:29:58;;;;;;;;;;;4.20;99.90;;;;;;5074480;28;20007;-57
2023/04/04 10:32:28;;;;;;;;;;;4.20;99.90;;;;;;5036392;28;20016;-57
2023/04/04 10:34:59;;;;;;;;;;;4.20;99.90;;;;;;5072102;28;19912;-57
2023/04/04 10:37:26;;;;;;;;;;;4.20;99.90;;;;;;5073514;28;19950;-57
2023/04/04 10:39:59;;;;;;;;;;;4.20;99.90;;;;;;5073954;28;19917;-57
2023/04/04 10:42:25;;;;;;;;;;;4.30;99.90;;;;;;5074996;28;19916;-57
2023/04/04 10:44:54;;;;;;;;;;;4.40;99.90;;;;;;5074883;28;20350;-57
2023/04/04 10:47:21;;;;;;;;;;;4.30;99.90;;;;;;5074758;28;20277;-57
2023/04/04 10:49:50;;;;;;;;;;;4.30;99.90;;;;;;5074911;28;19952;-57
2023/04/04 10:52:17;;;;;;;;;;;4.20;99.90;;;;;;5075129;28;19965;-56
2023/04/04 10:54:43;;;;;;;;;;;4.10;99.90;;;;;;5074597;28;19925;-57
2023/04/04 10:57:11;;;;;;;;;;;4.10;99.90;;;;;;5074671;28;19926;-57
2023/04/04 10:59:57;;;;;;;;;;;4.20;99.90;;;;;;5074824;28;20273;-57
2023/04/04 11:02:42;;;;;;;;;;;4.20;99.90;;;;;;5074705;28;20007;-57
2023/04/04 11:05:14;;;;;;;;;;;4.10;99.90;;;;;;5074517;28;19913;-57
2023/04/04 11:07:41;;;;;;;;;;;4.20;99.90;;;;;;5075284;28;19919;-57
2023/04/04 11:10:15;;;;;;;;;;;4.30;99.90;;;;;;5077522;28;19917;-57
2023/04/04 11:12:43;;;;;;;;;;;4.10;99.90;;;;;;5076998;28;19912;-57
2023/04/04 11:15:10;;;;;;;;;;;4.10;99.90;;;;;;5076331;28;20358;-57
2023/04/04 11:17:45;;;;;;;;;;;4.20;99.90;;;;;;5077588;28;19959;-57
2023/04/04 11:20:14;;;;;;;;;;;4.20;99.90;;;;;;5077003;28;19913;-57
2023/04/04 11:22:41;;;;;;;;;;;4.20;99.90;;;;;;5076172;28;19947;-57
2023/04/04 11:25:26;;;;;;;;;;;4.20;99.90;;;;;;5077167;28;20358;-57
2023/04/04 11:27:56;;;;;;;;;;;4.30;99.90;;;;;;5077278;28;19913;-57
2023/04/04 11:30:22;;;;;;;;;;;4.20;99.90;;;;;;5077355;28;19912;-57
2023/04/04 11:32:48;;;;;;;;;;;4.20;99.90;;;;;;5076872;28;19975;-57
2023/04/04 11:35:14;;;;;;;;;;;4.30;99.90;;;;;;5076462;28;20384;-57
2023/04/04 11:37:59;;;;;;;;;;;4.40;99.90;;;;;;5076943;28;19924;-57
2023/04/04 11:40:40;;;;;;;;;;;4.20;99.90;;;;;;5076753;28;19913;-57
2023/04/04 11:43:10;;;;;;;;;;;4.30;99.90;;;;;;5077099;28;19912;-57
2023/04/04 11:45:37;;;;;;;;;;;4.40;99.90;;;;;;5076991;28;20273;-57
2023/04/04 11:48:05;;;;;;;;;;;4.50;99.90;;;;;;5077086;28;19923;-57
2023/04/04 11:50:38;;;;;;;;;;;4.40;99.90;;;;;;5076837;28;20007;-57
2023/04/04 11:53:05;;;;;;;;;;;4.30;99.90;;;;;;5076370;28;19912;-57
2023/04/04 11:55:31;;;;;;;;;;;4.40;99.90;;;;;;5057239;28;20396;-57
2023/04/04 11:58:04;;;;;;;;;;;4.40;99.90;;;;;;5076758;28;19916;-57
2023/04/04 12:00:36;;;;;;;;;;;4.40;99.90;;;;;;5076769;28;19916;-57
2023/04/04 12:03:07;;;;;;;;;;;4.30;99.90;;;;;;5076719;28;19913;-57
2023/04/04 12:05:33;;;;;;;;;;;4.30;99.90;;;;;;5075533;28;19912;-57
2023/04/04 12:08:01;;;;;;;;;;;4.30;99.90;;;;;;5073228;28;19939;-57
2023/04/04 12:10:30;;;;;;;;;;;4.40;99.90;;;;;;5076307;28;20018;-57
2023/04/04 12:12:57;;;;;;;;;;;4.40;99.90;;;;;;5076285;28;19912;-57
2023/04/04 12:15:23;;;;;;;;;;;4.50;99.90;;;;;;5076351;28;20393;-57
2023/04/04 12:17:50;;;;;;;;;;;4.60;99.90;;;;;;5075995;28;19920;-57
2023/04/04 12:20:16;;;;;;;;;;;4.60;99.90;;;;;;5076229;28;19912;-57
2023/04/04 12:22:42;;;;;;;;;;;4.70;99.90;;;;;;5075998;28;19912;-57
2023/04/04 12:25:08;;;;;;;;;;;4.80;99.90;;;;;;5076223;28;19938;-57
2023/04/04 12:27:35;;;;;;;;;;;4.80;99.90;;;;;;5076262;28;19919;-57
2023/04/04 12:30:03;;;;;;;;;;;4.80;99.90;;;;;;5076150;28;20377;-57
2023/04/04 12:32:29;;;;;;;;;;;4.80;99.90;;;;;;5075898;28;20289;-57
2023/04/04 12:34:58;;;;;;;;;;;4.90;99.90;;;;;;5075580;28;19917;-57
2023/04/04 12:37:27;;;;;;;;;;;4.70;99.90;;;;;;5075363;28;20344;-57
2023/04/04 12:39:54;;;;;;;;;;;4.60;99.90;;;;;;5075669;28;20417;-57
2023/04/04 12:42:21;;;;;;;;;;;4.80;99.90;;;;;;5074460;28;19916;-57
2023/04/04 12:44:48;;;;;;;;;;;4.70;99.90;;;;;;5075634;28;19923;-57
2023/04/04 12:47:19;;;;;;;;;;;4.80;99.90;;;;;;5075350;28;19924;-57
2023/04/04 12:49:49;;;;;;;;;;;4.70;99.90;;;;;;5075681;28;19912;-57
2023/04/04 12:52:16;;;;;;;;;;;4.60;99.90;;;;;;5075508;28;19913;-57
2023/04/04 12:54:42;;;;;;;;;;;4.80;99.90;;;;;;5074643;28;20293;-57
2023/04/04 12:57:10;;;;;;;;;;;4.80;99.90;;;;;;5073984;28;19912;-57
2023/04/04 12:59:36;;;;;;;;;;;5.00;99.90;;;;;;5074771;28;19924;-57
2023/04/04 13:02:06;;;;;;;;;;;4.90;99.90;;;;;;5075557;28;20281;-57
2023/04/04 13:04:32;;;;;;;;;;;4.80;99.90;;;;;;5075174;28;19913;-57
2023/04/04 13:06:59;;;;;;;;;;;4.80;99.90;;;;;;5075471;28;19912;-57
2023/04/04 13:09:25;;;;;;;;;;;4.90;99.90;;;;;;5075106;28;20022;-57
2023/04/04 13:12:02;;;;;;;;;;;5.00;99.90;;;;;;5075393;28;19966;-57
2023/04/04 13:14:47;;;;;;;;;;;5.00;99.90;;;;;;5075823;28;19965;-57
2023/04/04 13:17:14;;;;;;;;;;;5.00;99.90;;;;;;5080879;28;20270;-57
2023/04/04 13:19:40;;;;;;;;;;;5.20;99.90;;;;;;5095736;28;20019;-57
2023/04/04 13:22:07;;;;;;;;;;;5.30;99.90;;;;;;5096195;28;19947;-57
2023/04/04 13:24:33;;;;;;;;;;;5.20;99.90;;;;;;5096311;28;19919;-57
2023/04/04 13:26:58;;;;;;;;;;;5.20;99.90;;;;;;5096187;28;19916;-57
2023/04/04 13:29:25;;;;;;;;;;;5.20;99.90;;;;;;5095417;28;20319;-57
2023/04/04 13:31:52;;;;;;;;;;;5.10;99.90;;;;;;5095037;28;19957;-57
2023/04/04 13:34:18;;;;;;;;;;;5.10;99.90;;;;;;5095389;28;20377;-57
2023/04/04 13:36:45;;;;;;;;;;;5.20;99.90;;;;;;5095443;28;19957;-57
2023/04/04 13:39:11;;;;;;;;;;;5.10;99.90;;;;;;5095125;28;19927;-57
2023/04/04 13:41:37;;;;;;;;;;;5.20;99.90;;;;;;5095482;28;19912;-57
2023/04/04 13:44:02;;;;;;;;;;;5.20;99.90;;;;;;5095297;28;19952;-57
2023/04/04 13:46:28;;;;;;;;;;;5.20;99.90;;;;;;5095132;28;19916;-57
2023/04/04 13:48:54;;;;;;;;;;;5.40;99.90;;;;;;5095235;28;19916;-57
2023/04/04 13:51:20;;;;;;;;;;;5.50;99.90;;;;;;5095362;28;20341;-57
2023/04/04 13:53:46;;;;;;;;;;;5.50;99.90;;;;;;5094828;28;19920;-57
2023/04/04 13:56:11;;;;;;;;;;;5.30;99.90;;;;;;5095101;28;20008;-57
2023/04/04 13:58:37;;;;;;;;;;;5.30;99.90;;;;;;5094999;28;19916;-57
2023/04/04 14:01:03;;;;;;;;;;;5.20;99.90;;;;;;5094883;28;19995;-57
2023/04/04 14:03:29;;;;;;;;;;;5.20;99.90;;;;;;5095431;28;19919;-57
2023/04/04 14:05:55;;;;;;;;;;;5.30;99.90;;;;;;5080428;28;20290;-57
2023/04/04 14:08:21;;;;;;;;;;;5.10;99.90;;;;;;5074461;28;20306;-57
2023/04/04 14:10:46;;;;;;;;;;;5.20;99.90;;;;;;5075068;28;19927;-57
2023/04/04 14:13:12;;;;;;;;;;;5.00;99.90;;;;;;5074735;28;19912;-57
2023/04/04 14:15:38;;;;;;;;;;;4.80;99.90;;;;;;5074542;28;19920;-57
2023/04/04 14:18:04;;;;;;;;;;;4.70;99.90;;;;;;5074402;28;19916;-57
2023/04/04 14:20:30;;;;;;;;;;;4.90;99.90;;;;;;5074759;28;19982;-57
2023/04/04 14:22:56;;;;;;;;;;;4.90;99.90;;;;;;5074485;28;19909;-57
2023/04/04 14:25:22;;;;;;;;;;;4.70;99.90;;;;;;5074447;28;20202;-57
2023/04/04 14:27:48;;;;;;;;;;;4.80;99.90;;;;;;5074857;28;19913;-57
2023/04/04 14:30:14;;;;;;;;;;;4.80;99.90;;;;;;5074365;28;19912;-57
2023/04/04 14:32:40;;;;;;;;;;;4.80;99.90;;;;;;5074336;28;19916;-57
2023/04/04 14:35:06;;;;;;;;;;;5.00;99.90;;;;;;5074533;28;19920;-57